sensor_id;sensor_type;location;lat;lon;timestamp;P1;durP1;ratioP1;P2;durP2;ratioP2
16705;SDS011;8469;60.136;15.180;2023-08-12T00:02:02;3.30;;;1.17;;
16705;SDS011;8469;60.136;15.180;2023-08-12T00:04:29;6.90;;;1.45;;
16705;SDS011;8469;60.136;15.180;2023-08-12T00:06:56;4.87;;;1.37;;
16705;SDS011;8469;60.136;15.180;2023-08-12T00:09:24;8.97;;;1.30;;
16705;SDS011;8469;60.136;15.180;2023-08-12T00:11:51;5.62;;;1.50;;
16705;SDS011;8469;60.136;15.180;2023-08-12T00:14:18;1.87;;;1.20;;
16705;SDS011;8469;60.136;15.180;2023-08-12T00:16:45;3.92;;;1.20;;
16705;SDS011;8469;60.136;15.180;2023-08-12T00:19:13;7.28;;;1.30;;
16705;SDS011;8469;60.136;15.180;2023-08-12T00:21:41;7.90;;;1.70;;
16705;SDS011;8469;60.136;15.180;2023-08-12T00:24:08;7.05;;;1.40;;
16705;SDS011;8469;60.136;15.180;2023-08-12T00:26:36;5.07;;;2.10;;
16705;SDS011;8469;60.136;15.180;2023-08-12T00:29:03;7.60;;;1.52;;
16705;SDS011;8469;60.136;15.180;2023-08-12T00:31:31;1.90;;;1.30;;
16705;SDS011;8469;60.136;15.180;2023-08-12T00:33:57;3.60;;;1.37;;
16705;SDS011;8469;60.136;15.180;2023-08-12T00:36:25;6.50;;;1.50;;
16705;SDS011;8469;60.136;15.180;2023-08-12T00:38:53;4.78;;;1.60;;
16705;SDS011;8469;60.136;15.180;2023-08-12T00:41:20;4.10;;;1.60;;
16705;SDS011;8469;60.136;15.180;2023-08-12T00:43:47;4.22;;;1.40;;
16705;SDS011;8469;60.136;15.180;2023-08-12T00:46:16;3.87;;;1.42;;
16705;SDS011;8469;60.136;15.180;2023-08-12T00:48:43;3.30;;;1.60;;
16705;SDS011;8469;60.136;15.180;2023-08-12T00:51:12;4.67;;;1.35;;
16705;SDS011;8469;60.136;15.180;2023-08-12T00:53:39;4.33;;;1.40;;
16705;SDS011;8469;60.136;15.180;2023-08-12T00:56:06;5.93;;;1.40;;
16705;SDS011;8469;60.136;15.180;2023-08-12T00:58:33;4.72;;;1.45;;
16705;SDS011;8469;60.136;15.180;2023-08-12T01:01:01;5.20;;;1.40;;
16705;SDS011;8469;60.136;15.180;2023-08-12T01:03:30;8.20;;;1.50;;
16705;SDS011;8469;60.136;15.180;2023-08-12T01:05:58;2.70;;;1.40;;
16705;SDS011;8469;60.136;15.180;2023-08-12T01:08:27;2.98;;;1.40;;
16705;SDS011;8469;60.136;15.180;2023-08-12T01:11:00;6.33;;;1.40;;
16705;SDS011;8469;60.136;15.180;2023-08-12T01:13:29;3.15;;;1.40;;
16705;SDS011;8469;60.136;15.180;2023-08-12T01:15:58;3.72;;;1.40;;
16705;SDS011;8469;60.136;15.180;2023-08-12T01:18:29;3.70;;;1.10;;
16705;SDS011;8469;60.136;15.180;2023-08-12T01:20:57;3.08;;;1.25;;
16705;SDS011;8469;60.136;15.180;2023-08-12T01:23:25;6.67;;;1.40;;
16705;SDS011;8469;60.136;15.180;2023-08-12T01:25:53;2.92;;;1.30;;
16705;SDS011;8469;60.136;15.180;2023-08-12T01:28:20;7.13;;;1.70;;
16705;SDS011;8469;60.136;15.180;2023-08-12T01:31:12;7.95;;;1.40;;
16705;SDS011;8469;60.136;15.180;2023-08-12T01:33:19;3.80;;;1.60;;
16705;SDS011;8469;60.136;15.180;2023-08-12T01:36:08;8.13;;;1.60;;
16705;SDS011;8469;60.136;15.180;2023-08-12T01:38:46;3.52;;;1.45;;
16705;SDS011;8469;60.136;15.180;2023-08-12T01:41:13;3.67;;;1.62;;
16705;SDS011;8469;60.136;15.180;2023-08-12T01:43:43;4.95;;;1.40;;
16705;SDS011;8469;60.136;15.180;2023-08-12T01:46:11;5.53;;;1.60;;
16705;SDS011;8469;60.136;15.180;2023-08-12T01:48:38;6.35;;;1.60;;
16705;SDS011;8469;60.136;15.180;2023-08-12T01:51:06;4.92;;;1.60;;
16705;SDS011;8469;60.136;15.180;2023-08-12T01:53:34;5.47;;;1.30;;
16705;SDS011;8469;60.136;15.180;2023-08-12T01:56:01;4.50;;;1.45;;
16705;SDS011;8469;60.136;15.180;2023-08-12T01:58:28;3.70;;;1.20;;
16705;SDS011;8469;60.136;15.180;2023-08-12T02:00:56;4.25;;;1.57;;
16705;SDS011;8469;60.136;15.180;2023-08-12T02:03:23;4.58;;;1.65;;
16705;SDS011;8469;60.136;15.180;2023-08-12T02:05:50;6.47;;;1.57;;
16705;SDS011;8469;60.136;15.180;2023-08-12T02:08:18;6.15;;;1.47;;
16705;SDS011;8469;60.136;15.180;2023-08-12T02:10:45;6.93;;;2.00;;
16705;SDS011;8469;60.136;15.180;2023-08-12T02:13:12;4.03;;;1.40;;
16705;SDS011;8469;60.136;15.180;2023-08-12T02:15:40;5.10;;;1.30;;
16705;SDS011;8469;60.136;15.180;2023-08-12T02:18:08;6.78;;;1.65;;
16705;SDS011;8469;60.136;15.180;2023-08-12T02:20:35;6.67;;;1.50;;
16705;SDS011;8469;60.136;15.180;2023-08-12T02:23:03;5.00;;;1.70;;
16705;SDS011;8469;60.136;15.180;2023-08-12T02:25:30;3.50;;;1.45;;
16705;SDS011;8469;60.136;15.180;2023-08-12T02:27:58;5.65;;;1.60;;
16705;SDS011;8469;60.136;15.180;2023-08-12T02:30:25;5.50;;;1.67;;
16705;SDS011;8469;60.136;15.180;2023-08-12T02:32:52;4.30;;;1.50;;
16705;SDS011;8469;60.136;15.180;2023-08-12T02:35:20;6.90;;;1.90;;
16705;SDS011;8469;60.136;15.180;2023-08-12T02:37:48;4.60;;;1.40;;
16705;SDS011;8469;60.136;15.180;2023-08-12T02:40:15;6.55;;;1.70;;
16705;SDS011;8469;60.136;15.180;2023-08-12T02:42:43;3.83;;;1.70;;
16705;SDS011;8469;60.136;15.180;2023-08-12T02:45:10;4.65;;;1.47;;
16705;SDS011;8469;60.136;15.180;2023-08-12T02:47:37;4.47;;;1.65;;
16705;SDS011;8469;60.136;15.180;2023-08-12T02:50:05;3.40;;;1.60;;
16705;SDS011;8469;60.136;15.180;2023-08-12T02:52:32;5.00;;;1.70;;
16705;SDS011;8469;60.136;15.180;2023-08-12T02:55:00;7.85;;;1.62;;
16705;SDS011;8469;60.136;15.180;2023-08-12T02:57:27;9.03;;;1.70;;
16705;SDS011;8469;60.136;15.180;2023-08-12T02:59:54;5.75;;;1.60;;
16705;SDS011;8469;60.136;15.180;2023-08-12T03:02:22;5.35;;;1.67;;
16705;SDS011;8469;60.136;15.180;2023-08-12T03:04:49;10.25;;;2.60;;
16705;SDS011;8469;60.136;15.180;2023-08-12T03:07:16;5.58;;;1.60;;
16705;SDS011;8469;60.136;15.180;2023-08-12T03:09:44;4.60;;;1.60;;
16705;SDS011;8469;60.136;15.180;2023-08-12T03:12:12;8.40;;;2.10;;
16705;SDS011;8469;60.136;15.180;2023-08-12T03:14:39;7.42;;;1.70;;
16705;SDS011;8469;60.136;15.180;2023-08-12T03:17:06;6.35;;;1.65;;
16705;SDS011;8469;60.136;15.180;2023-08-12T03:19:34;7.17;;;1.63;;
16705;SDS011;8469;60.136;15.180;2023-08-12T03:22:01;6.40;;;1.40;;
16705;SDS011;8469;60.136;15.180;2023-08-12T03:24:29;5.10;;;1.80;;
16705;SDS011;8469;60.136;15.180;2023-08-12T03:26:56;4.83;;;1.70;;
16705;SDS011;8469;60.136;15.180;2023-08-12T03:29:24;6.00;;;1.70;;
16705;SDS011;8469;60.136;15.180;2023-08-12T03:31:51;4.53;;;1.62;;
16705;SDS011;8469;60.136;15.180;2023-08-12T03:34:18;6.60;;;1.90;;
16705;SDS011;8469;60.136;15.180;2023-08-12T03:36:46;3.47;;;1.50;;
16705;SDS011;8469;60.136;15.180;2023-08-12T03:39:14;6.08;;;1.50;;
16705;SDS011;8469;60.136;15.180;2023-08-12T03:41:42;5.05;;;1.50;;
16705;SDS011;8469;60.136;15.180;2023-08-12T03:44:10;3.45;;;1.52;;
16705;SDS011;8469;60.136;15.180;2023-08-12T03:46:37;3.87;;;1.60;;
16705;SDS011;8469;60.136;15.180;2023-08-12T03:49:05;6.78;;;1.65;;
16705;SDS011;8469;60.136;15.180;2023-08-12T03:51:32;6.80;;;1.30;;
16705;SDS011;8469;60.136;15.180;2023-08-12T03:54:00;9.35;;;1.82;;
16705;SDS011;8469;60.136;15.180;2023-08-12T03:56:27;4.65;;;1.60;;
16705;SDS011;8469;60.136;15.180;2023-08-12T03:58:54;6.15;;;1.52;;
16705;SDS011;8469;60.136;15.180;2023-08-12T04:01:22;7.17;;;1.90;;
16705;SDS011;8469;60.136;15.180;2023-08-12T04:03:49;4.47;;;1.77;;
16705;SDS011;8469;60.136;15.180;2023-08-12T04:06:17;5.50;;;1.50;;
16705;SDS011;8469;60.136;15.180;2023-08-12T04:08:44;7.83;;;1.72;;
16705;SDS011;8469;60.136;15.180;2023-08-12T04:11:12;5.70;;;1.55;;
16705;SDS011;8469;60.136;15.180;2023-08-12T04:13:39;3.55;;;1.55;;
16705;SDS011;8469;60.136;15.180;2023-08-12T04:16:07;6.03;;;1.40;;
16705;SDS011;8469;60.136;15.180;2023-08-12T04:18:34;5.25;;;1.42;;
16705;SDS011;8469;60.136;15.180;2023-08-12T04:21:01;5.97;;;1.60;;
16705;SDS011;8469;60.136;15.180;2023-08-12T04:23:30;3.98;;;1.47;;
16705;SDS011;8469;60.136;15.180;2023-08-12T04:25:58;7.72;;;1.77;;
16705;SDS011;8469;60.136;15.180;2023-08-12T04:28:25;6.78;;;1.62;;
16705;SDS011;8469;60.136;15.180;2023-08-12T04:30:53;11.80;;;1.70;;
16705;SDS011;8469;60.136;15.180;2023-08-12T04:33:20;3.17;;;1.60;;
16705;SDS011;8469;60.136;15.180;2023-08-12T04:35:47;4.92;;;1.65;;
16705;SDS011;8469;60.136;15.180;2023-08-12T04:38:15;7.45;;;2.50;;
16705;SDS011;8469;60.136;15.180;2023-08-12T04:40:42;6.60;;;1.52;;
16705;SDS011;8469;60.136;15.180;2023-08-12T04:43:09;8.28;;;1.65;;
16705;SDS011;8469;60.136;15.180;2023-08-12T04:45:39;5.87;;;1.80;;
16705;SDS011;8469;60.136;15.180;2023-08-12T04:48:06;7.35;;;1.72;;
16705;SDS011;8469;60.136;15.180;2023-08-12T04:50:34;4.53;;;1.50;;
16705;SDS011;8469;60.136;15.180;2023-08-12T04:53:02;4.27;;;1.70;;
16705;SDS011;8469;60.136;15.180;2023-08-12T04:55:29;3.02;;;1.40;;
16705;SDS011;8469;60.136;15.180;2023-08-12T04:57:56;5.47;;;1.67;;
16705;SDS011;8469;60.136;15.180;2023-08-12T05:00:24;5.80;;;1.67;;
16705;SDS011;8469;60.136;15.180;2023-08-12T05:02:51;4.40;;;1.50;;
16705;SDS011;8469;60.136;15.180;2023-08-12T05:05:19;5.62;;;1.52;;
16705;SDS011;8469;60.136;15.180;2023-08-12T05:07:46;9.53;;;2.60;;
16705;SDS011;8469;60.136;15.180;2023-08-12T05:10:19;3.15;;;1.85;;
16705;SDS011;8469;60.136;15.180;2023-08-12T05:12:44;4.40;;;1.60;;
16705;SDS011;8469;60.136;15.180;2023-08-12T05:15:13;5.72;;;1.67;;
16705;SDS011;8469;60.136;15.180;2023-08-12T05:17:40;7.97;;;2.60;;
16705;SDS011;8469;60.136;15.180;2023-08-12T05:20:08;12.30;;;2.00;;
16705;SDS011;8469;60.136;15.180;2023-08-12T05:22:35;2.90;;;1.50;;
16705;SDS011;8469;60.136;15.180;2023-08-12T05:25:02;6.33;;;1.70;;
16705;SDS011;8469;60.136;15.180;2023-08-12T05:27:30;5.62;;;1.80;;
16705;SDS011;8469;60.136;15.180;2023-08-12T05:29:57;7.40;;;2.10;;
16705;SDS011;8469;60.136;15.180;2023-08-12T05:32:25;5.07;;;2.00;;
16705;SDS011;8469;60.136;15.180;2023-08-12T05:34:53;9.15;;;2.22;;
16705;SDS011;8469;60.136;15.180;2023-08-12T05:37:20;6.17;;;2.10;;
16705;SDS011;8469;60.136;15.180;2023-08-12T05:39:47;3.83;;;1.98;;
16705;SDS011;8469;60.136;15.180;2023-08-12T05:42:14;8.03;;;2.00;;
16705;SDS011;8469;60.136;15.180;2023-08-12T05:44:42;7.17;;;2.10;;
16705;SDS011;8469;60.136;15.180;2023-08-12T05:47:10;6.75;;;2.35;;
16705;SDS011;8469;60.136;15.180;2023-08-12T05:49:37;4.25;;;1.98;;
16705;SDS011;8469;60.136;15.180;2023-08-12T05:52:04;7.60;;;2.30;;
16705;SDS011;8469;60.136;15.180;2023-08-12T05:54:33;8.33;;;2.25;;
16705;SDS011;8469;60.136;15.180;2023-08-12T05:57:00;7.17;;;2.50;;
16705;SDS011;8469;60.136;15.180;2023-08-12T05:59:27;4.92;;;2.20;;
16705;SDS011;8469;60.136;15.180;2023-08-12T06:01:54;4.40;;;2.20;;
16705;SDS011;8469;60.136;15.180;2023-08-12T06:04:22;4.80;;;2.40;;
16705;SDS011;8469;60.136;15.180;2023-08-12T06:06:49;6.50;;;2.60;;
16705;SDS011;8469;60.136;15.180;2023-08-12T06:09:17;5.47;;;2.42;;
16705;SDS011;8469;60.136;15.180;2023-08-12T06:11:44;7.33;;;2.30;;
16705;SDS011;8469;60.136;15.180;2023-08-12T06:14:11;7.50;;;2.20;;
16705;SDS011;8469;60.136;15.180;2023-08-12T06:16:38;5.65;;;2.65;;
16705;SDS011;8469;60.136;15.180;2023-08-12T06:19:06;8.98;;;2.90;;
16705;SDS011;8469;60.136;15.180;2023-08-12T06:21:33;6.15;;;2.60;;
16705;SDS011;8469;60.136;15.180;2023-08-12T06:24:01;7.28;;;2.58;;
16705;SDS011;8469;60.136;15.180;2023-08-12T06:26:28;12.82;;;3.10;;
16705;SDS011;8469;60.136;15.180;2023-08-12T06:28:55;5.63;;;2.93;;
16705;SDS011;8469;60.136;15.180;2023-08-12T06:31:23;6.08;;;2.90;;
16705;SDS011;8469;60.136;15.180;2023-08-12T06:33:50;10.03;;;3.30;;
16705;SDS011;8469;60.136;15.180;2023-08-12T06:36:17;7.50;;;3.05;;
16705;SDS011;8469;60.136;15.180;2023-08-12T06:38:44;5.40;;;3.15;;
16705;SDS011;8469;60.136;15.180;2023-08-12T06:41:12;12.35;;;3.70;;
16705;SDS011;8469;60.136;15.180;2023-08-12T06:43:39;7.60;;;3.70;;
16705;SDS011;8469;60.136;15.180;2023-08-12T06:46:06;9.78;;;3.72;;
16705;SDS011;8469;60.136;15.180;2023-08-12T06:48:34;7.60;;;3.80;;
16705;SDS011;8469;60.136;15.180;2023-08-12T06:51:01;6.58;;;3.55;;
16705;SDS011;8469;60.136;15.180;2023-08-12T06:53:31;6.25;;;3.50;;
16705;SDS011;8469;60.136;15.180;2023-08-12T06:55:58;9.48;;;3.72;;
16705;SDS011;8469;60.136;15.180;2023-08-12T06:58:25;7.58;;;3.62;;
16705;SDS011;8469;60.136;15.180;2023-08-12T07:00:53;8.38;;;3.70;;
16705;SDS011;8469;60.136;15.180;2023-08-12T07:03:20;7.55;;;3.62;;
16705;SDS011;8469;60.136;15.180;2023-08-12T07:05:47;6.55;;;3.42;;
16705;SDS011;8469;60.136;15.180;2023-08-12T07:08:14;6.92;;;3.02;;
16705;SDS011;8469;60.136;15.180;2023-08-12T07:10:42;6.62;;;3.42;;
16705;SDS011;8469;60.136;15.180;2023-08-12T07:13:10;6.55;;;3.33;;
16705;SDS011;8469;60.136;15.180;2023-08-12T07:15:37;4.95;;;3.30;;
16705;SDS011;8469;60.136;15.180;2023-08-12T07:18:04;6.00;;;3.27;;
16705;SDS011;8469;60.136;15.180;2023-08-12T07:20:32;5.83;;;3.47;;
16705;SDS011;8469;60.136;15.180;2023-08-12T07:22:59;7.70;;;3.50;;
16705;SDS011;8469;60.136;15.180;2023-08-12T07:25:27;6.10;;;3.35;;
16705;SDS011;8469;60.136;15.180;2023-08-12T07:27:54;6.33;;;3.40;;
16705;SDS011;8469;60.136;15.180;2023-08-12T07:30:21;6.78;;;3.10;;
16705;SDS011;8469;60.136;15.180;2023-08-12T07:32:49;7.58;;;3.30;;
16705;SDS011;8469;60.136;15.180;2023-08-12T07:35:16;4.53;;;3.35;;
16705;SDS011;8469;60.136;15.180;2023-08-12T07:37:43;6.83;;;3.50;;
16705;SDS011;8469;60.136;15.180;2023-08-12T07:40:10;5.08;;;3.60;;
16705;SDS011;8469;60.136;15.180;2023-08-12T07:42:38;5.37;;;3.30;;
16705;SDS011;8469;60.136;15.180;2023-08-12T07:45:06;6.30;;;3.33;;
16705;SDS011;8469;60.136;15.180;2023-08-12T07:47:35;6.87;;;3.40;;
16705;SDS011;8469;60.136;15.180;2023-08-12T07:50:02;6.25;;;3.12;;
16705;SDS011;8469;60.136;15.180;2023-08-12T07:52:30;5.50;;;3.37;;
16705;SDS011;8469;60.136;15.180;2023-08-12T07:54:57;9.05;;;3.92;;
16705;SDS011;8469;60.136;15.180;2023-08-12T07:57:24;5.30;;;3.67;;
16705;SDS011;8469;60.136;15.180;2023-08-12T07:59:52;4.87;;;3.80;;
16705;SDS011;8469;60.136;15.180;2023-08-12T08:02:19;4.53;;;3.80;;
16705;SDS011;8469;60.136;15.180;2023-08-12T08:04:46;6.00;;;4.00;;
16705;SDS011;8469;60.136;15.180;2023-08-12T08:07:15;6.67;;;4.13;;
16705;SDS011;8469;60.136;15.180;2023-08-12T08:09:43;5.92;;;4.10;;
16705;SDS011;8469;60.136;15.180;2023-08-12T08:12:11;6.37;;;4.23;;
16705;SDS011;8469;60.136;15.180;2023-08-12T08:14:38;7.00;;;4.40;;
16705;SDS011;8469;60.136;15.180;2023-08-12T08:17:06;8.65;;;4.85;;
16705;SDS011;8469;60.136;15.180;2023-08-12T08:19:33;6.90;;;4.47;;
16705;SDS011;8469;60.136;15.180;2023-08-12T08:22:00;7.65;;;4.85;;
16705;SDS011;8469;60.136;15.180;2023-08-12T08:24:29;7.12;;;4.35;;
16705;SDS011;8469;60.136;15.180;2023-08-12T08:26:56;6.17;;;4.17;;
16705;SDS011;8469;60.136;15.180;2023-08-12T08:29:24;4.72;;;3.70;;
16705;SDS011;8469;60.136;15.180;2023-08-12T08:31:51;10.18;;;4.03;;
16705;SDS011;8469;60.136;15.180;2023-08-12T08:34:18;8.30;;;4.23;;
16705;SDS011;8469;60.136;15.180;2023-08-12T08:36:46;4.83;;;3.40;;
16705;SDS011;8469;60.136;15.180;2023-08-12T08:39:13;5.03;;;3.40;;
16705;SDS011;8469;60.136;15.180;2023-08-12T08:41:40;4.07;;;3.10;;
16705;SDS011;8469;60.136;15.180;2023-08-12T08:44:09;4.50;;;3.20;;
16705;SDS011;8469;60.136;15.180;2023-08-12T08:46:36;3.17;;;2.80;;
16705;SDS011;8469;60.136;15.180;2023-08-12T08:49:04;4.00;;;2.80;;
16705;SDS011;8469;60.136;15.180;2023-08-12T08:51:31;3.35;;;2.47;;
16705;SDS011;8469;60.136;15.180;2023-08-12T08:53:59;6.30;;;2.60;;
16705;SDS011;8469;60.136;15.180;2023-08-12T08:56:26;3.42;;;2.33;;
16705;SDS011;8469;60.136;15.180;2023-08-12T08:58:54;2.13;;;2.03;;
16705;SDS011;8469;60.136;15.180;2023-08-12T09:01:20;2.00;;;1.90;;
16705;SDS011;8469;60.136;15.180;2023-08-12T09:03:54;1.80;;;1.70;;
16705;SDS011;8469;60.136;15.180;2023-08-12T09:06:20;2.10;;;2.00;;
16705;SDS011;8469;60.136;15.180;2023-08-12T09:08:49;2.00;;;1.90;;
16705;SDS011;8469;60.136;15.180;2023-08-12T09:11:18;2.60;;;1.98;;
16705;SDS011;8469;60.136;15.180;2023-08-12T09:13:47;2.58;;;2.40;;
16705;SDS011;8469;60.136;15.180;2023-08-12T09:16:15;2.52;;;2.33;;
16705;SDS011;8469;60.136;15.180;2023-08-12T09:18:42;4.45;;;2.10;;
16705;SDS011;8469;60.136;15.180;2023-08-12T09:21:11;4.08;;;2.30;;
16705;SDS011;8469;60.136;15.180;2023-08-12T09:23:39;4.28;;;2.60;;
16705;SDS011;8469;60.136;15.180;2023-08-12T09:26:20;3.20;;;2.47;;
16705;SDS011;8469;60.136;15.180;2023-08-12T09:28:44;2.67;;;2.30;;
16705;SDS011;8469;60.136;15.180;2023-08-12T09:31:24;4.40;;;2.50;;
16705;SDS011;8469;60.136;15.180;2023-08-12T09:33:52;6.20;;;2.80;;
16705;SDS011;8469;60.136;15.180;2023-08-12T09:36:21;3.95;;;2.60;;
16705;SDS011;8469;60.136;15.180;2023-08-12T09:38:48;2.90;;;2.60;;
16705;SDS011;8469;60.136;15.180;2023-08-12T09:41:15;3.27;;;2.98;;
16705;SDS011;8469;60.136;15.180;2023-08-12T09:43:44;3.90;;;3.00;;
16705;SDS011;8469;60.136;15.180;2023-08-12T09:46:12;3.30;;;2.77;;
16705;SDS011;8469;60.136;15.180;2023-08-12T09:48:40;6.37;;;3.08;;
16705;SDS011;8469;60.136;15.180;2023-08-12T09:51:08;3.50;;;2.77;;
16705;SDS011;8469;60.136;15.180;2023-08-12T09:53:37;3.47;;;2.73;;
16705;SDS011;8469;60.136;15.180;2023-08-12T09:56:07;3.83;;;3.00;;
16705;SDS011;8469;60.136;15.180;2023-08-12T09:58:35;5.33;;;3.00;;
16705;SDS011;8469;60.136;15.180;2023-08-12T10:01:03;3.80;;;2.70;;
16705;SDS011;8469;60.136;15.180;2023-08-12T10:03:32;3.47;;;2.77;;
16705;SDS011;8469;60.136;15.180;2023-08-12T10:06:01;5.08;;;3.02;;
16705;SDS011;8469;60.136;15.180;2023-08-12T10:08:29;5.22;;;3.42;;
16705;SDS011;8469;60.136;15.180;2023-08-12T10:10:58;5.27;;;3.37;;
16705;SDS011;8469;60.136;15.180;2023-08-12T10:13:26;3.40;;;3.10;;
16705;SDS011;8469;60.136;15.180;2023-08-12T10:15:53;4.60;;;3.00;;
16705;SDS011;8469;60.136;15.180;2023-08-12T10:18:21;6.37;;;3.50;;
16705;SDS011;8469;60.136;15.180;2023-08-12T10:20:48;7.58;;;3.67;;
16705;SDS011;8469;60.136;15.180;2023-08-12T10:23:17;6.50;;;3.87;;
16705;SDS011;8469;60.136;15.180;2023-08-12T10:25:45;6.92;;;3.70;;
16705;SDS011;8469;60.136;15.180;2023-08-12T10:28:12;4.83;;;3.55;;
16705;SDS011;8469;60.136;15.180;2023-08-12T10:30:40;4.97;;;3.70;;
16705;SDS011;8469;60.136;15.180;2023-08-12T10:33:09;5.10;;;3.90;;
16705;SDS011;8469;60.136;15.180;2023-08-12T10:35:41;5.92;;;4.30;;
16705;SDS011;8469;60.136;15.180;2023-08-12T10:38:12;4.20;;;3.80;;
16705;SDS011;8469;60.136;15.180;2023-08-12T10:40:40;6.70;;;4.30;;
16705;SDS011;8469;60.136;15.180;2023-08-12T10:43:08;5.58;;;4.40;;
16705;SDS011;8469;60.136;15.180;2023-08-12T10:45:42;5.35;;;3.80;;
16705;SDS011;8469;60.136;15.180;2023-08-12T10:48:11;4.70;;;4.10;;
16705;SDS011;8469;60.136;15.180;2023-08-12T10:50:52;6.35;;;3.75;;
16705;SDS011;8469;60.136;15.180;2023-08-12T10:53:26;6.87;;;3.83;;
16705;SDS011;8469;60.136;15.180;2023-08-12T10:55:54;5.70;;;3.80;;
16705;SDS011;8469;60.136;15.180;2023-08-12T10:58:26;5.05;;;3.72;;
16705;SDS011;8469;60.136;15.180;2023-08-12T11:00:54;5.95;;;3.62;;
16705;SDS011;8469;60.136;15.180;2023-08-12T11:03:22;5.57;;;3.97;;
16705;SDS011;8469;60.136;15.180;2023-08-12T11:05:49;6.15;;;3.72;;
16705;SDS011;8469;60.136;15.180;2023-08-12T11:08:18;6.65;;;4.00;;
16705;SDS011;8469;60.136;15.180;2023-08-12T11:10:47;5.37;;;3.70;;
16705;SDS011;8469;60.136;15.180;2023-08-12T11:13:14;5.75;;;3.62;;
16705;SDS011;8469;60.136;15.180;2023-08-12T11:15:43;5.17;;;3.37;;
16705;SDS011;8469;60.136;15.180;2023-08-12T11:18:18;5.22;;;3.70;;
16705;SDS011;8469;60.136;15.180;2023-08-12T11:20:42;5.37;;;4.17;;
16705;SDS011;8469;60.136;15.180;2023-08-12T11:23:09;6.20;;;3.50;;
16705;SDS011;8469;60.136;15.180;2023-08-12T11:25:38;7.35;;;3.80;;
16705;SDS011;8469;60.136;15.180;2023-08-12T11:28:06;5.87;;;4.15;;
16705;SDS011;8469;60.136;15.180;2023-08-12T11:30:34;7.15;;;4.00;;
16705;SDS011;8469;60.136;15.180;2023-08-12T11:33:02;4.75;;;3.92;;
16705;SDS011;8469;60.136;15.180;2023-08-12T11:35:30;6.37;;;4.13;;
16705;SDS011;8469;60.136;15.180;2023-08-12T11:37:58;4.67;;;3.62;;
16705;SDS011;8469;60.136;15.180;2023-08-12T11:40:26;4.70;;;3.77;;
16705;SDS011;8469;60.136;15.180;2023-08-12T11:42:54;5.00;;;3.77;;
16705;SDS011;8469;60.136;15.180;2023-08-12T11:45:22;5.75;;;3.58;;
16705;SDS011;8469;60.136;15.180;2023-08-12T11:47:50;6.13;;;3.97;;
16705;SDS011;8469;60.136;15.180;2023-08-12T11:50:21;6.47;;;4.30;;
16705;SDS011;8469;60.136;15.180;2023-08-12T11:52:53;6.27;;;4.40;;
16705;SDS011;8469;60.136;15.180;2023-08-12T11:55:23;9.63;;;4.97;;
16705;SDS011;8469;60.136;15.180;2023-08-12T11:57:50;6.50;;;4.23;;
16705;SDS011;8469;60.136;15.180;2023-08-12T12:00:17;7.47;;;4.67;;
16705;SDS011;8469;60.136;15.180;2023-08-12T12:02:49;6.83;;;4.78;;
16705;SDS011;8469;60.136;15.180;2023-08-12T12:05:25;7.92;;;4.55;;
16705;SDS011;8469;60.136;15.180;2023-08-12T12:07:52;7.22;;;5.03;;
16705;SDS011;8469;60.136;15.180;2023-08-12T12:10:26;8.13;;;5.00;;
16705;SDS011;8469;60.136;15.180;2023-08-12T12:12:54;7.73;;;4.80;;
16705;SDS011;8469;60.136;15.180;2023-08-12T12:15:22;6.03;;;4.40;;
16705;SDS011;8469;60.136;15.180;2023-08-12T12:17:49;6.55;;;4.40;;
16705;SDS011;8469;60.136;15.180;2023-08-12T12:20:17;7.23;;;4.30;;
16705;SDS011;8469;60.136;15.180;2023-08-12T12:22:44;7.40;;;4.67;;
16705;SDS011;8469;60.136;15.180;2023-08-12T12:25:13;8.18;;;4.83;;
16705;SDS011;8469;60.136;15.180;2023-08-12T12:27:42;6.08;;;4.40;;
16705;SDS011;8469;60.136;15.180;2023-08-12T12:30:09;5.95;;;4.40;;
16705;SDS011;8469;60.136;15.180;2023-08-12T12:32:37;7.70;;;4.47;;
16705;SDS011;8469;60.136;15.180;2023-08-12T12:35:05;6.17;;;4.72;;
16705;SDS011;8469;60.136;15.180;2023-08-12T12:37:34;5.65;;;4.50;;
16705;SDS011;8469;60.136;15.180;2023-08-12T12:40:02;6.62;;;4.35;;
16705;SDS011;8469;60.136;15.180;2023-08-12T12:42:31;6.45;;;4.08;;
16705;SDS011;8469;60.136;15.180;2023-08-12T12:44:58;6.55;;;4.70;;
16705;SDS011;8469;60.136;15.180;2023-08-12T12:47:26;6.47;;;3.83;;
16705;SDS011;8469;60.136;15.180;2023-08-12T12:49:53;4.85;;;4.20;;
16705;SDS011;8469;60.136;15.180;2023-08-12T12:52:21;5.60;;;4.10;;
16705;SDS011;8469;60.136;15.180;2023-08-12T12:54:48;7.17;;;3.80;;
16705;SDS011;8469;60.136;15.180;2023-08-12T12:57:15;7.47;;;4.10;;
16705;SDS011;8469;60.136;15.180;2023-08-12T12:59:43;4.42;;;3.77;;
16705;SDS011;8469;60.136;15.180;2023-08-12T13:02:10;6.70;;;4.40;;
16705;SDS011;8469;60.136;15.180;2023-08-12T13:04:37;4.40;;;3.90;;
16705;SDS011;8469;60.136;15.180;2023-08-12T13:07:05;6.55;;;3.50;;
16705;SDS011;8469;60.136;15.180;2023-08-12T13:09:33;4.87;;;3.75;;
16705;SDS011;8469;60.136;15.180;2023-08-12T13:12:00;5.47;;;3.62;;
16705;SDS011;8469;60.136;15.180;2023-08-12T13:14:27;4.78;;;3.72;;
16705;SDS011;8469;60.136;15.180;2023-08-12T13:16:56;6.70;;;3.80;;
16705;SDS011;8469;60.136;15.180;2023-08-12T13:19:24;4.10;;;3.70;;
16705;SDS011;8469;60.136;15.180;2023-08-12T13:21:51;6.37;;;3.70;;
16705;SDS011;8469;60.136;15.180;2023-08-12T13:24:18;4.35;;;3.50;;
16705;SDS011;8469;60.136;15.180;2023-08-12T13:26:46;5.37;;;3.17;;
16705;SDS011;8469;60.136;15.180;2023-08-12T13:29:14;4.75;;;3.30;;
16705;SDS011;8469;60.136;15.180;2023-08-12T13:31:41;3.30;;;3.00;;
16705;SDS011;8469;60.136;15.180;2023-08-12T13:34:08;3.40;;;2.95;;
16705;SDS011;8469;60.136;15.180;2023-08-12T13:36:36;3.70;;;3.10;;
16705;SDS011;8469;60.136;15.180;2023-08-12T13:39:06;3.30;;;2.70;;
16705;SDS011;8469;60.136;15.180;2023-08-12T13:41:32;2.85;;;2.55;;
16705;SDS011;8469;60.136;15.180;2023-08-12T13:43:59;2.95;;;2.75;;
16705;SDS011;8469;60.136;15.180;2023-08-12T13:46:26;2.87;;;2.67;;
16705;SDS011;8469;60.136;15.180;2023-08-12T13:48:54;3.10;;;2.80;;
16705;SDS011;8469;60.136;15.180;2023-08-12T13:51:21;2.52;;;2.40;;
16705;SDS011;8469;60.136;15.180;2023-08-12T13:53:48;2.65;;;2.30;;
16705;SDS011;8469;60.136;15.180;2023-08-12T13:56:16;2.62;;;2.45;;
16705;SDS011;8469;60.136;15.180;2023-08-12T13:58:44;3.90;;;2.80;;
16705;SDS011;8469;60.136;15.180;2023-08-12T14:01:11;2.77;;;2.50;;
16705;SDS011;8469;60.136;15.180;2023-08-12T14:03:38;3.50;;;2.50;;
16705;SDS011;8469;60.136;15.180;2023-08-12T14:06:05;2.60;;;2.40;;
16705;SDS011;8469;60.136;15.180;2023-08-12T14:08:33;3.70;;;2.70;;
16705;SDS011;8469;60.136;15.180;2023-08-12T14:11:00;4.45;;;2.47;;
16705;SDS011;8469;60.136;15.180;2023-08-12T14:13:27;2.75;;;2.55;;
16705;SDS011;8469;60.136;15.180;2023-08-12T14:15:55;2.85;;;2.60;;
16705;SDS011;8469;60.136;15.180;2023-08-12T14:18:22;3.47;;;2.50;;
16705;SDS011;8469;60.136;15.180;2023-08-12T14:20:49;3.07;;;2.63;;
16705;SDS011;8469;60.136;15.180;2023-08-12T14:23:16;5.30;;;2.60;;
16705;SDS011;8469;60.136;15.180;2023-08-12T14:25:44;2.60;;;2.40;;
16705;SDS011;8469;60.136;15.180;2023-08-12T14:28:11;4.45;;;2.52;;
16705;SDS011;8469;60.136;15.180;2023-08-12T14:30:38;3.10;;;2.60;;
16705;SDS011;8469;60.136;15.180;2023-08-12T14:33:06;3.42;;;2.62;;
16705;SDS011;8469;60.136;15.180;2023-08-12T14:35:34;2.67;;;2.47;;
16705;SDS011;8469;60.136;15.180;2023-08-12T14:38:02;3.60;;;2.20;;
16705;SDS011;8469;60.136;15.180;2023-08-12T14:40:29;3.02;;;2.50;;
16705;SDS011;8469;60.136;15.180;2023-08-12T14:42:56;5.17;;;2.50;;
16705;SDS011;8469;60.136;15.180;2023-08-12T14:45:23;5.92;;;2.80;;
16705;SDS011;8469;60.136;15.180;2023-08-12T14:47:50;3.37;;;2.65;;
16705;SDS011;8469;60.136;15.180;2023-08-12T14:50:19;2.77;;;2.58;;
16705;SDS011;8469;60.136;15.180;2023-08-12T14:52:46;3.35;;;2.37;;